sensor_id;sensor_type;location;lat;lon;timestamp;pressure;altitude;pressure_sealevel;temperature;humidity
5679;BME280;2862;52.560;13.566;2023-06-24T00:01:04;101332.13;;;17.81;100.00
5679;BME280;2862;52.560;13.566;2023-06-24T00:11:09;101333.50;;;17.85;100.00
5679;BME280;2862;52.560;13.566;2023-06-24T00:21:12;101342.00;;;17.90;100.00
5679;BME280;2862;52.560;13.566;2023-06-24T00:31:20;101357.38;;;17.89;100.00
5679;BME280;2862;52.560;13.566;2023-06-24T00:41:24;101349.31;;;17.97;100.00
5679;BME280;2862;52.560;13.566;2023-06-24T00:51:28;101342.31;;;17.87;100.00
5679;BME280;2862;52.560;13.566;2023-06-24T01:01:34;101347.56;;;17.70;100.00
5679;BME280;2862;52.560;13.566;2023-06-24T01:11:39;101349.31;;;17.53;100.00
5679;BME280;2862;52.560;13.566;2023-06-24T01:21:53;101343.38;;;17.50;100.00
5679;BME280;2862;52.560;13.566;2023-06-24T01:32:06;101349.25;;;17.45;100.00
5679;BME280;2862;52.560;13.566;2023-06-24T01:42:11;101342.53;;;17.32;100.00
5679;BME280;2862;52.560;13.566;2023-06-24T01:52:18;101333.91;;;17.28;100.00
5679;BME280;2862;52.560;13.566;2023-06-24T02:02:25;101328.59;;;17.18;100.00
5679;BME280;2862;52.560;13.566;2023-06-24T02:12:30;101337.09;;;17.06;100.00
5679;BME280;2862;52.560;13.566;2023-06-24T02:22:35;101334.34;;;16.97;100.00
5679;BME280;2862;52.560;13.566;2023-06-24T02:32:40;101339.03;;;16.95;100.00
5679;BME280;2862;52.560;13.566;2023-06-24T02:42:43;101343.13;;;16.99;100.00
5679;BME280;2862;52.560;13.566;2023-06-24T02:52:47;101342.81;;;17.03;100.00
5679;BME280;2862;52.560;13.566;2023-06-24T03:02:54;101355.94;;;17.15;100.00
5679;BME280;2862;52.560;13.566;2023-06-24T03:12:58;101366.66;;;17.25;100.00
5679;BME280;2862;52.560;13.566;2023-06-24T03:23:10;101375.53;;;17.35;100.00
5679;BME280;2862;52.560;13.566;2023-06-24T03:33:15;101386.19;;;17.19;100.00
5679;BME280;2862;52.560;13.566;2023-06-24T03:43:20;101385.75;;;17.06;100.00
5679;BME280;2862;52.560;13.566;2023-06-24T03:53:25;101394.91;;;17.13;100.00
5679;BME280;2862;52.560;13.566;2023-06-24T04:03:28;101403.72;;;17.50;100.00
5679;BME280;2862;52.560;13.566;2023-06-24T04:13:35;101394.19;;;22.67;86.09
5679;BME280;2862;52.560;13.566;2023-06-24T04:23:38;101397.06;;;21.54;86.21
5679;BME280;2862;52.560;13.566;2023-06-24T04:33:43;101407.53;;;19.45;98.31
5679;BME280;2862;52.560;13.566;2023-06-24T04:43:47;101411.72;;;23.30;77.98
5679;BME280;2862;52.560;13.566;2023-06-24T04:53:51;101418.88;;;26.39;60.62
5679;BME280;2862;52.560;13.566;2023-06-24T05:03:55;101425.13;;;30.75;48.92
5679;BME280;2862;52.560;13.566;2023-06-24T05:14:00;101416.34;;;33.50;39.99
5679;BME280;2862;52.560;13.566;2023-06-24T05:24:05;101419.50;;;35.06;35.19
5679;BME280;2862;52.560;13.566;2023-06-24T05:34:10;101429.31;;;35.85;33.02
5679;BME280;2862;52.560;13.566;2023-06-24T05:44:13;101432.97;;;37.36;30.58
5679;BME280;2862;52.560;13.566;2023-06-24T05:54:17;101449.09;;;37.00;30.56
5679;BME280;2862;52.560;13.566;2023-06-24T06:04:20;101447.53;;;37.96;29.33
5679;BME280;2862;52.560;13.566;2023-06-24T06:14:24;101448.34;;;36.74;30.71
5679;BME280;2862;52.560;13.566;2023-06-24T06:24:27;101457.97;;;38.67;26.71
5679;BME280;2862;52.560;13.566;2023-06-24T06:34:32;101464.03;;;35.22;32.24
5679;BME280;2862;52.560;13.566;2023-06-24T06:44:35;101451.22;;;38.20;27.37
5679;BME280;2862;52.560;13.566;2023-06-24T06:54:39;101444.03;;;38.14;27.20
5679;BME280;2862;52.560;13.566;2023-06-24T07:04:47;101449.03;;;38.89;27.65
5679;BME280;2862;52.560;13.566;2023-06-24T07:14:53;101450.88;;;35.02;33.27
5679;BME280;2862;52.560;13.566;2023-06-24T07:24:57;101441.75;;;36.49;29.83
5679;BME280;2862;52.560;13.566;2023-06-24T07:35:01;101469.63;;;34.69;33.13
5679;BME280;2862;52.560;13.566;2023-06-24T07:45:05;101471.22;;;34.50;31.95
5679;BME280;2862;52.560;13.566;2023-06-24T07:55:22;101481.88;;;32.13;33.21
5679;BME280;2862;52.560;13.566;2023-06-24T08:05:25;101492.97;;;30.47;37.65
5679;BME280;2862;52.560;13.566;2023-06-24T08:15:30;101489.59;;;28.53;44.02
5679;BME280;2862;52.560;13.566;2023-06-24T08:25:33;101503.94;;;27.10;48.73
5679;BME280;2862;52.560;13.566;2023-06-24T08:35:37;101491.41;;;27.91;43.18
5679;BME280;2862;52.560;13.566;2023-06-24T08:45:40;101499.75;;;27.39;46.35
5679;BME280;2862;52.560;13.566;2023-06-24T08:55:45;101492.88;;;27.30;49.08
5679;BME280;2862;52.560;13.566;2023-06-24T09:05:48;101495.41;;;26.60;46.65
5679;BME280;2862;52.560;13.566;2023-06-24T09:15:53;101506.59;;;26.59;46.99
5679;BME280;2862;52.560;13.566;2023-06-24T09:25:56;101493.09;;;26.64;46.96
5679;BME280;2862;52.560;13.566;2023-06-24T09:36:03;101505.34;;;26.35;49.41
5679;BME280;2862;52.560;13.566;2023-06-24T09:46:06;101499.25;;;25.93;49.50
5679;BME280;2862;52.560;13.566;2023-06-24T09:56:13;101495.59;;;25.59;45.11
5679;BME280;2862;52.560;13.566;2023-06-24T10:06:17;101495.88;;;25.16;50.23
5679;BME280;2862;52.560;13.566;2023-06-24T10:16:22;101482.44;;;25.28;49.14
5679;BME280;2862;52.560;13.566;2023-06-24T10:26:26;101471.69;;;25.13;44.99
5679;BME280;2862;52.560;13.566;2023-06-24T10:36:32;101478.16;;;25.06;47.18
5679;BME280;2862;52.560;13.566;2023-06-24T10:46:35;101456.97;;;25.28;47.39
5679;BME280;2862;52.560;13.566;2023-06-24T10:56:40;101453.44;;;25.40;45.51
5679;BME280;2862;52.560;13.566;2023-06-24T11:06:43;101455.53;;;25.38;46.25
5679;BME280;2862;52.560;13.566;2023-06-24T11:16:47;101452.97;;;24.76;46.67
5679;BME280;2862;52.560;13.566;2023-06-24T11:26:51;101450.19;;;25.17;47.96
5679;BME280;2862;52.560;13.566;2023-06-24T11:36:55;101457.31;;;24.63;47.42
5679;BME280;2862;52.560;13.566;2023-06-24T11:47:05;101445.44;;;24.84;45.20
5679;BME280;2862;52.560;13.566;2023-06-24T11:57:09;101443.75;;;24.83;46.64
5679;BME280;2862;52.560;13.566;2023-06-24T12:07:16;101443.69;;;25.18;46.86
5679;BME280;2862;52.560;13.566;2023-06-24T12:17:21;101434.84;;;25.16;45.38
5679;BME280;2862;52.560;13.566;2023-06-24T12:27:24;101433.38;;;25.27;45.54
5679;BME280;2862;52.560;13.566;2023-06-24T12:37:30;101431.47;;;25.14;45.67
5679;BME280;2862;52.560;13.566;2023-06-24T12:47:33;101422.41;;;25.07;45.01
5679;BME280;2862;52.560;13.566;2023-06-24T12:57:37;101412.13;;;25.29;44.66
5679;BME280;2862;52.560;13.566;2023-06-24T13:07:41;101413.41;;;25.39;45.68
5679;BME280;2862;52.560;13.566;2023-06-24T13:17:46;101423.34;;;25.60;45.87
5679;BME280;2862;52.560;13.566;2023-06-24T13:27:49;101422.13;;;25.76;44.68
5679;BME280;2862;52.560;13.566;2023-06-24T13:37:53;101425.03;;;25.75;45.72
5679;BME280;2862;52.560;13.566;2023-06-24T13:47:56;101410.69;;;25.86;46.17
5679;BME280;2862;52.560;13.566;2023-06-24T13:58:02;101395.72;;;26.02;45.80
5679;BME280;2862;52.560;13.566;2023-06-24T14:08:06;101388.06;;;26.30;46.39
5679;BME280;2862;52.560;13.566;2023-06-24T14:18:10;101394.38;;;26.37;44.00
5679;BME280;2862;52.560;13.566;2023-06-24T14:28:13;101391.00;;;26.48;42.50
5679;BME280;2862;52.560;13.566;2023-06-24T14:38:18;101383.41;;;26.37;44.00
5679;BME280;2862;52.560;13.566;2023-06-24T14:48:21;101371.13;;;26.60;43.28
5679;BME280;2862;52.560;13.566;2023-06-24T14:58:25;101364.56;;;26.61;43.64
5679;BME280;2862;52.560;13.566;2023-06-24T15:08:28;101361.91;;;26.41;42.24
5679;BME280;2862;52.560;13.566;2023-06-24T15:18:33;101360.28;;;26.13;43.15
5679;BME280;2862;52.560;13.566;2023-06-24T15:28:36;101359.69;;;26.05;43.00
5679;BME280;2862;52.560;13.566;2023-06-24T15:38:40;101351.84;;;26.15;42.60
5679;BME280;2862;52.560;13.566;2023-06-24T15:48:43;101346.03;;;25.78;42.56
5679;BME280;2862;52.560;13.566;2023-06-24T15:58:47;101343.25;;;25.98;43.38
5679;BME280;2862;52.560;13.566;2023-06-24T16:08:51;101338.25;;;25.75;44.69
5679;BME280;2862;52.560;13.566;2023-06-24T16:18:55;101341.78;;;25.69;44.54
5679;BME280;2862;52.560;13.566;2023-06-24T16:28:58;101344.13;;;25.59;45.45
5679;BME280;2862;52.560;13.566;2023-06-24T16:39:03;101335.47;;;25.29;46.13
5679;BME280;2862;52.560;13.566;2023-06-24T16:49:06;101344.31;;;25.31;45.06
5679;BME280;2862;52.560;13.566;2023-06-24T16:59:10;101344.72;;;25.28;44.72
5679;BME280;2862;52.560;13.566;2023-06-24T17:09:13;101337.34;;;25.08;45.15
5679;BME280;2862;52.560;13.566;2023-06-24T17:19:17;101334.38;;;25.03;44.68
5679;BME280;2862;52.560;13.566;2023-06-24T17:29:22;101338.31;;;24.87;44.75
5679;BME280;2862;52.560;13.566;2023-06-24T17:39:28;101335.34;;;24.69;45.43
5679;BME280;2862;52.560;13.566;2023-06-24T17:49:31;101325.00;;;24.64;44.87
5679;BME280;2862;52.560;13.566;2023-06-24T17:59:36;101325.19;;;24.56;45.85
5679;BME280;2862;52.560;13.566;2023-06-24T18:09:39;101339.28;;;24.53;46.18
5679;BME280;2862;52.560;13.566;2023-06-24T18:19:44;101334.28;;;24.22;47.57
5679;BME280;2862;52.560;13.566;2023-06-24T18:29:48;101332.69;;;24.00;48.19
5679;BME280;2862;52.560;13.566;2023-06-24T18:39:52;101332.69;;;24.00;48.72
5679;BME280;2862;52.560;13.566;2023-06-24T18:49:56;101328.53;;;23.76;49.89
5679;BME280;2862;52.560;13.566;2023-06-24T19:00:00;101326.38;;;23.65;50.70
5679;BME280;2862;52.560;13.566;2023-06-24T19:10:04;101323.44;;;23.45;51.69
5679;BME280;2862;52.560;13.566;2023-06-24T19:20:10;101325.22;;;23.31;53.82
5679;BME280;2862;52.560;13.566;2023-06-24T19:30:13;101325.44;;;23.08;54.09
5679;BME280;2862;52.560;13.566;2023-06-24T19:40:17;101332.66;;;22.79;55.60
5679;BME280;2862;52.560;13.566;2023-06-24T19:50:24;101336.47;;;22.64;57.38
5679;BME280;2862;52.560;13.566;2023-06-24T20:00:28;101334.06;;;22.54;56.97
5679;BME280;2862;52.560;13.566;2023-06-24T20:10:31;101338.13;;;22.43;58.50
5679;BME280;2862;52.560;13.566;2023-06-24T20:20:36;101337.09;;;22.30;57.56
5679;BME280;2862;52.560;13.566;2023-06-24T20:30:39;101333.97;;;22.03;58.37
5679;BME280;2862;52.560;13.566;2023-06-24T20:40:43;101322.91;;;22.05;58.12
5679;BME280;2862;52.560;13.566;2023-06-24T20:50:46;101316.41;;;22.06;57.03
5679;BME280;2862;52.560;13.566;2023-06-24T21:00:54;101314.84;;;21.96;57.32
5679;BME280;2862;52.560;13.566;2023-06-24T21:10:57;101312.34;;;21.72;59.87
5679;BME280;2862;52.560;13.566;2023-06-24T21:21:02;101319.94;;;21.62;60.20
5679;BME280;2862;52.560;13.566;2023-06-24T21:31:04;101314.69;;;21.60;62.28
5679;BME280;2862;52.560;13.566;2023-06-24T21:41:09;101305.94;;;21.50;64.33
5679;BME280;2862;52.560;13.566;2023-06-24T21:51:12;101310.97;;;21.38;62.45
5679;BME280;2862;52.560;13.566;2023-06-24T22:01:16;101307.53;;;21.21;63.52
5679;BME280;2862;52.560;13.566;2023-06-24T22:11:19;101304.09;;;21.28;62.54
5679;BME280;2862;52.560;13.566;2023-06-24T22:21:24;101309.06;;;21.24;63.79
5679;BME280;2862;52.560;13.566;2023-06-24T22:31:27;101313.59;;;21.09;65.25
5679;BME280;2862;52.560;13.566;2023-06-24T22:41:32;101311.41;;;20.81;69.44
5679;BME280;2862;52.560;13.566;2023-06-24T22:51:34;101310.91;;;20.55;73.66
5679;BME280;2862;52.560;13.566;2023-06-24T23:01:39;101306.25;;;20.32;74.72
5679;BME280;2862;52.560;13.566;2023-06-24T23:11:43;101306.19;;;20.09;73.48
5679;BME280;2862;52.560;13.566;2023-06-24T23:21:53;101322.34;;;19.95;76.21
5679;BME280;2862;52.560;13.566;2023-06-24T23:31:56;101315.22;;;19.94;73.62
5679;BME280;2862;52.560;13.566;2023-06-24T23:42:02;101303.06;;;19.73;75.58
5679;BME280;2862;52.560;13.566;2023-06-24T23:52:08;101299.53;;;19.73;74.20
